Yellow Springs, OH (45387)

12:20 PM EDT on August 31, 2015 (GMT -0400)
Yellow Springs | | Change Station
CLOSE
Current Station
Personal Weather Station
Location: Yellow Springs, OH
Elevation: 988 ft
Nearby Weather Stations

Elev 988 ft 39.79 °N, 83.88 °W | Updated 15 seconds ago

Partly Cloudy
Partly Cloudy
80.6 °F
Feels Like 84 °F
N
0.2
Wind Variable Wind from SSE
Gusts 2.5 mph

Today
High -- | Low -- °F
--% Chance of Precip.
Yesterday
High -- | Low -- °F
Precip. -- in
7:02 AM 8:08 PM
Waning Gibbous, 95% visible
Pressure 30.14 in
Visibility 10.0 miles
Clouds Scattered Clouds 1800 ft
Heat Index 84 °F
Dew Point 70 °F
Humidity 71%
Rainfall 0.00 in
Snow Depth Not available.
UV 4.0 out of 12
Pollen 10.30 out of 12
Air Quality Not available.
Flu Activity Not available.
METAR KSGH 311556Z AUTO 24004KT 10SM SCT018 27/22 A3016 RMK AO2 T02720222 SLP206
Pressure 30.14 in
Visibility 10.0 miles
Clouds Scattered Clouds 1800 ft
Heat Index 84 °F
Dew Point 70 °F
Humidity 71%
Rainfall 0.00 in
Snow Depth Not available.
UV 4.0 out of 12
Pollen 10.30 out of 12
Air Quality Not available.
Flu Activity Not available.
METAR KSGH 311556Z AUTO 24004KT 10SM SCT018 27/22 A3016 RMK AO2 T02720222 SLP206

10-Day Weather Forecast

×

Almanac

Astronomy

Aug. 31, 2015 Rise Set
Actual Time
Civil Twilight
Nautical Twilight
Astronomical Twilight
Moon
Length of Visible Light
Length of Day
Tomorrow will be .
, % of the Moon is Illuminated

Today's Extremes

State Highs State Lows

Community

WunderPhotos

Upload Photos

1,851,302 photos uploaded!

WunderBlogs® & News

Nearby

Air Quality

  Air Quality AQ Index Pollutant
Not available.

Snow Depth

Station Depth Elevation

Earthquake Activity

City Distance Mag. Time & Date
Minimum magnitude displayed is 2.5.

Coastal Water Temperatures

Place Temperature

Stations

Nearby Weather Stations

Station Location Temp. Windchill Dew Point Humidity Wind Precip. Elev Updated Type